»·PEaware :: AAY383 KMFR-KPDX

AAY383 :: KMFR-KPDX

FLIGHT INFORMATION

Flight Status: Arrived
Operator:
Allegiant Air
More flights by this operator :: More flights under this callsign
Pilot: David C. (16084)
Aircraft: AIRBUS A320
(A320)
More flights by this aircraft type
Origin: KMFR Rogue Valley Intl-Medford
United States
Destination: KPDX Portland Intl
United States
More flights between these airports :: More routes between these airports
Route: JKSN1 OED MOURN MOXEE TMBRS2
File this flight plan on PilotEdge
Remarks:
Altitude:
(Current/Filed)
27,000ft
Speed:
(Current/Filed)
486kts
Departed: 05-Jul-20 12:50 PM
Arrived: 05-Jul-20 01:30 PM
Distance/Time
Traveled:
193nm/0:40
Distance/Time
To Go:
Arrived

Flight Plot

Page will automatically refresh every two minutes.


Map Options




Map Legend


Flown Route
Filed Route
Departure Airport
Arrival Airport
Navaid (VOR, NDB)
Fix

Horizontal Profiles

Position Reports

Time Latitude Longitude Heading Altitude Ground
Speed
05-Jul-20 12:00 42.369107 -122.873633 248 1324ft 0kts
05-Jul-20 12:01 42.369107 -122.873633 248 1324ft 0kts
05-Jul-20 12:02 42.369107 -122.873633 248 1324ft 0kts
05-Jul-20 12:04 42.369107 -122.873633 248 1324ft 0kts
05-Jul-20 12:05 42.369107 -122.873633 248 1324ft 0kts
05-Jul-20 12:06 42.369107 -122.873633 248 1324ft 0kts
05-Jul-20 12:07 42.369107 -122.873633 248 1324ft 0kts
05-Jul-20 12:08 42.369107 -122.873633 248 1324ft 0kts
05-Jul-20 12:09 42.369107 -122.873633 248 1324ft 0kts
05-Jul-20 12:10 42.369107 -122.873633 248 1324ft 0kts
05-Jul-20 12:11 42.369107 -122.873633 248 1324ft 0kts
05-Jul-20 12:12 42.369107 -122.873633 248 1324ft 0kts
05-Jul-20 12:13 42.369107 -122.873633 248 1324ft 0kts
05-Jul-20 12:14 42.369107 -122.873633 248 1324ft 0kts
05-Jul-20 12:15 42.369107 -122.873633 248 1324ft 0kts
05-Jul-20 12:16 42.369107 -122.873633 248 1324ft 0kts
05-Jul-20 12:17 42.369107 -122.873633 248 1324ft 0kts
05-Jul-20 12:18 42.369107 -122.873633 248 1324ft 0kts
05-Jul-20 12:19 42.369107 -122.873633 248 1324ft 0kts
05-Jul-20 12:20 42.369107 -122.873633 248 1324ft 0kts
05-Jul-20 12:21 42.369107 -122.873633 248 1324ft 0kts
05-Jul-20 12:21 42.369107 -122.873633 248 1324ft 0kts
05-Jul-20 12:23 42.369107 -122.873633 248 1324ft 0kts
05-Jul-20 12:23 42.369107 -122.873633 248 1324ft 0kts
05-Jul-20 12:24 42.369107 -122.873633 248 1324ft 0kts
05-Jul-20 12:25 42.369107 -122.873633 248 1324ft 0kts
05-Jul-20 12:26 42.369107 -122.873633 248 1324ft 0kts
05-Jul-20 12:27 42.369107 -122.873633 248 1324ft 0kts
05-Jul-20 12:28 42.369185 -122.873306 261 1325ft 2kts
05-Jul-20 12:29 42.369188 -122.872915 278 1326ft 0kts
05-Jul-20 12:30 42.369188 -122.872915 278 1326ft 0kts
05-Jul-20 12:31 42.369188 -122.872915 278 1326ft 0kts
05-Jul-20 12:32 42.369188 -122.872915 278 1326ft 0kts
05-Jul-20 12:33 42.369188 -122.872915 278 1326ft 0kts
05-Jul-20 12:34 42.369188 -122.872915 278 1326ft 0kts
05-Jul-20 12:35 42.369556 -122.873072 39 1325ft 0kts
05-Jul-20 12:36 42.369556 -122.873072 39 1325ft 0kts
05-Jul-20 12:37 42.369556 -122.873072 39 1325ft 0kts
05-Jul-20 12:38 42.369556 -122.873072 39 1325ft 0kts
05-Jul-20 12:39 42.369556 -122.873072 39 1325ft 0kts
05-Jul-20 12:40 42.369556 -122.873072 39 1325ft 0kts
05-Jul-20 12:41 42.369556 -122.873072 39 1325ft 0kts
05-Jul-20 12:42 42.369556 -122.873072 39 1325ft 0kts
05-Jul-20 12:43 42.370193 -122.872495 9 1325ft 9kts
05-Jul-20 12:44 42.375392 -122.875102 338 1316ft 26kts
05-Jul-20 12:45 42.382560 -122.878874 338 1311ft 29kts
05-Jul-20 12:46 42.385596 -122.880317 11 1302ft 0kts
05-Jul-20 12:47 42.385596 -122.880317 11 1302ft 0kts
05-Jul-20 12:48 42.385388 -122.878730 157 1306ft 27kts
05-Jul-20 12:49 42.347419 -122.861646 184 2493ft 202kts
05-Jul-20 12:50 42.335275 -122.923714 319 5331ft 242kts
05-Jul-20 12:51 42.406242 -122.934346 12 7937ft 294kts
05-Jul-20 12:52 42.488364 -122.914749 352 10849ft 316kts
05-Jul-20 12:53 42.581913 -122.931676 349 13239ft 350kts
05-Jul-20 12:54 42.680276 -122.949898 348 15858ft 364kts
05-Jul-20 12:55 42.780978 -122.968576 347 18581ft 366kts
05-Jul-20 12:56 42.883354 -122.987623 347 20790ft 377kts
05-Jul-20 12:57 42.988481 -123.006064 355 22884ft 387kts
05-Jul-20 12:58 43.097459 -122.984909 5 24677ft 402kts
05-Jul-20 12:59 43.205365 -122.961542 5 26156ft 413kts
05-Jul-20 13:00 43.321300 -122.936324 5 27209ft 435kts
05-Jul-20 13:01 43.446244 -122.908978 5 27229ft 474kts
05-Jul-20 13:02 43.580359 -122.879537 5 27230ft 493kts
05-Jul-20 13:03 43.716006 -122.849680 5 27231ft 493kts
05-Jul-20 13:04 43.851451 -122.819687 5 27231ft 493kts
05-Jul-20 13:05 43.986860 -122.789555 5 27229ft 493kts
05-Jul-20 13:06 44.112548 -122.761463 5 27012ft 490kts
05-Jul-20 13:07 44.249713 -122.743358 1 23700ft 487kts
05-Jul-20 13:08 44.382199 -122.730306 1 21497ft 460kts
05-Jul-20 13:09 44.502729 -122.718426 1 20605ft 408kts
05-Jul-20 13:10 44.610172 -122.707740 0 19637ft 369kts
05-Jul-20 13:11 44.710683 -122.697596 1 17877ft 357kts
05-Jul-20 13:12 44.807791 -122.687792 1 16135ft 346kts
05-Jul-20 13:13 44.902472 -122.678262 1 14441ft 336kts
05-Jul-20 13:14 44.991272 -122.669316 1 13461ft 307kts
05-Jul-20 13:15 45.075306 -122.660772 2 12030ft 300kts
05-Jul-20 13:16 45.154354 -122.652709 3 10665ft 295kts
05-Jul-20 13:17 45.234677 -122.644510 3 9283ft 290kts
05-Jul-20 13:18 45.305866 -122.673831 337 8059ft 286kts
05-Jul-20 13:19 45.375366 -122.712002 337 6811ft 278kts
05-Jul-20 13:20 45.442017 -122.748620 337 5607ft 272kts
05-Jul-20 13:21 45.505622 -122.783646 337 5075ft 242kts
05-Jul-20 13:22 45.563444 -122.810684 342 4528ft 193kts
05-Jul-20 13:23 45.615487 -122.829381 359 3725ft 189kts
05-Jul-20 13:24 45.653360 -122.791097 70 2473ft 182kts
05-Jul-20 13:25 45.646015 -122.729029 120 2157ft 179kts
05-Jul-20 13:26 45.625630 -122.675948 119 1290ft 154kts
05-Jul-20 13:27 45.608484 -122.631384 119 610ft 140kts
05-Jul-20 13:28 45.590744 -122.585293 119 31ft 112kts
05-Jul-20 13:29 45.584570 -122.569362 119 31ft 15kts
05-Jul-20 13:30 45.584652 -122.572864 297 31ft 25kts
05-Jul-20 13:31 45.588397 -122.582516 300 31ft 32kts
05-Jul-20 13:32 45.590327 -122.589706 266 31ft 9kts
05-Jul-20 13:33 45.589855 -122.590572 224 31ft 0kts
05-Jul-20 13:34 45.589855 -122.590572 224 31ft 0kts
05-Jul-20 13:35 45.589855 -122.590572 224 31ft 0kts

Navigation Log

Ident Type
Flight plan parsing failed, navigation log unavailable